KGXY/GXY METAR and TAF weather

Enter ICAO airport designator
Station Type Date Time Source
KGXY METAR 2020/03/28 13:56 UTC NOAA

KGXY 281356Z AUTO 31016KT 10SM CLR 01/M08 A2981 RMK AO2 SLP122 T00111078 FZRANO


Station Type Date Time Source
KGXY Decoded METAR 2020/03/28 13:56 UTC NOAA

Greeley, Greeley-Weld County Airport, CO, United States (KGXY) 40-26N 104-38W
Mar 28, 2020 - 09:56 AM EDT / 2020.03.28 1356 UTC
Wind: from the NW (310 degrees) at 18 MPH (16 KT):0
Visibility: 10 mile(s):0
Sky conditions: clear
Temperature: 34.0 F (1.1 C)
Windchill: 23 F (-5 C):1
Dew Point: 18.0 F (-7.8 C)
Relative Humidity: 51%
Pressure (altimeter): 29.81 in. Hg (1009 hPa)
ob: KGXY 281356Z AUTO 31016KT 10SM CLR 01/M08 A2981 RMK AO2 SLP122 T00111078 FZRANO
cycle: 14

Station Type Date Time Source
KGXY TAF UTC NOAA

Error!

Example: see airport list